Time;durP1;ratioP1;P1;durP2;ratioP2;P2;SDS_P1;SDS_P2;PMS_P1;PMS_P2;Temp;Humidity;BMP_temperature;BMP_pressure;BME280_temperature;BME280_humidity;BME280_pressure;Samples;Min_cycle;Max_cycle;Signal;HPM_P1;HPM_P2
2022/11/10 00:00:35;;;;;;;5.70;5.03;;;7.80;99.90;;;;;;5091554;28;20474;-47
2022/11/10 00:03:03;;;;;;;6.10;4.53;;;7.80;99.90;;;;;;5091150;28;20523;-49
2022/11/10 00:05:30;;;;;;;4.83;4.33;;;7.40;99.90;;;;;;5091334;28;20469;-47
2022/11/10 00:07:58;;;;;;;5.77;4.00;;;7.20;99.90;;;;;;5091308;28;20527;-47
2022/11/10 00:10:24;;;;;;;3.37;2.90;;;7.30;99.90;;;;;;5091240;28;20448;-48
2022/11/10 00:12:53;;;;;;;3.67;2.47;;;7.40;99.90;;;;;;5091127;28;20538;-48
2022/11/10 00:18:04;;;;;;;4.80;3.40;;;7.70;99.90;;;;;;5091004;28;20434;-47
2022/11/10 00:20:32;;;;;;;3.90;3.40;;;7.80;99.90;;;;;;5090940;28;20519;-47
2022/11/10 00:22:58;;;;;;;4.10;2.90;;;7.80;99.90;;;;;;5090910;28;20432;-47
2022/11/10 00:25:26;;;;;;;3.23;2.93;;;7.90;99.90;;;;;;5091169;28;20534;-49
2022/11/10 00:27:54;;;;;;;3.13;2.83;;;7.90;99.90;;;;;;5091224;28;20515;-47
2022/11/10 00:30:21;;;;;;;3.60;3.00;;;7.90;99.90;;;;;;5091179;28;20459;-47
2022/11/10 00:32:48;;;;;;;3.43;2.73;;;7.90;99.90;;;;;;5091160;28;21021;-48
2022/11/10 00:35:15;;;;;;;6.77;3.33;;;7.90;99.90;;;;;;5090732;28;20470;-47
2022/11/10 00:37:42;;;;;;;6.90;3.50;;;8.00;99.90;;;;;;5091134;28;20513;-49
2022/11/10 00:40:10;;;;;;;5.53;4.30;;;8.00;99.90;;;;;;5090844;28;20461;-47
2022/11/10 00:42:37;;;;;;;6.60;5.70;;;7.70;99.90;;;;;;5090999;28;20863;-47
2022/11/10 00:45:06;;;;;;;8.13;5.00;;;7.40;99.90;;;;;;5090879;28;20581;-47
2022/11/10 00:47:33;;;;;;;8.80;6.70;;;7.10;99.90;;;;;;5090777;28;20875;-48
2022/11/10 00:50:00;;;;;;;8.07;5.40;;;7.00;99.90;;;;;;5091037;28;20980;-47
2022/11/10 00:52:27;;;;;;;6.80;6.13;;;7.20;99.90;;;;;;5091064;28;20479;-47
2022/11/10 00:54:53;;;;;;;7.60;5.30;;;7.10;99.90;;;;;;5090339;28;20481;-47
2022/11/10 00:57:20;;;;;;;4.20;3.67;;;7.10;99.90;;;;;;5092250;28;20471;-47
2022/11/10 00:59:47;;;;;;;5.90;4.07;;;7.10;99.90;;;;;;5093421;28;20538;-47
2022/11/10 01:02:15;;;;;;;3.37;2.40;;;7.30;99.90;;;;;;5095350;28;20928;-47
2022/11/10 01:04:42;;;;;;;4.90;3.43;;;7.50;99.90;;;;;;5094285;28;20902;-48
2022/11/10 01:07:09;;;;;;;5.90;3.30;;;7.60;99.90;;;;;;5094599;28;20446;-47
2022/11/10 01:09:36;;;;;;;4.53;4.13;;;7.70;99.90;;;;;;5094543;28;20778;-47
2022/11/10 01:12:03;;;;;;;6.40;4.80;;;7.80;99.90;;;;;;5094582;28;20489;-47
2022/11/10 01:14:30;;;;;;;7.83;5.63;;;7.80;99.90;;;;;;5093830;28;20467;-47
2022/11/10 01:16:56;;;;;;;6.70;6.00;;;7.70;99.90;;;;;;5094258;28;20485;-49
2022/11/10 01:19:25;;;;;;;5.63;4.90;;;7.80;99.90;;;;;;5093238;28;20523;-47
2022/11/10 01:21:52;;;;;;;4.90;4.23;;;7.80;99.90;;;;;;5094307;28;20990;-47
2022/11/10 01:24:24;;;;;;;7.50;3.80;;;7.80;99.90;;;;;;5093648;28;20543;-48
2022/11/10 01:26:54;;;;;;;3.43;3.13;;;7.80;99.90;;;;;;5094106;28;20440;-48
2022/11/10 01:29:21;;;;;;;6.20;3.30;;;7.90;99.90;;;;;;5093879;28;20439;-47
2022/11/10 01:31:49;;;;;;;3.27;2.57;;;7.90;99.90;;;;;;5094266;28;20566;-47
2022/11/10 01:34:25;;;;;;;2.83;2.37;;;8.00;99.90;;;;;;5093857;28;21024;-47
2022/11/10 01:36:56;;;;;;;4.33;3.90;;;8.00;99.90;;;;;;5092670;28;20439;-47
2022/11/10 01:39:39;;;;;;;4.57;4.10;;;8.00;99.90;;;;;;5092658;28;20530;-47
2022/11/10 01:45:31;;;;;;;4.50;3.20;;;8.00;99.90;;;;;;5093682;28;20480;-47
2022/11/10 01:48:09;;;;;;;4.13;3.20;;;8.00;99.90;;;;;;5094076;28;20514;-47
2022/11/10 01:50:40;;;;;;;3.30;3.00;;;8.00;99.90;;;;;;5094256;28;20448;-47
2022/11/10 01:53:21;;;;;;;4.60;4.20;;;8.00;99.90;;;;;;5093423;28;20563;-49
2022/11/10 01:55:50;;;;;;;6.37;4.87;;;8.00;99.90;;;;;;5093501;28;20534;-47
2022/11/10 01:58:38;;;;;;;5.43;4.83;;;8.00;99.90;;;;;;5093689;28;20443;-48
2022/11/10 02:01:09;;;;;;;5.27;4.77;;;7.70;99.90;;;;;;5093811;28;20444;-50
2022/11/10 02:03:42;;;;;;;5.10;4.50;;;7.60;99.90;;;;;;5093161;28;20960;-48
2022/11/10 02:06:20;;;;;;;4.60;4.20;;;7.50;99.90;;;;;;5093564;28;20471;-49
2022/11/10 02:09:04;;;;;;;4.90;4.50;;;7.40;99.90;;;;;;5093260;28;20959;-47
2022/11/10 02:11:33;;;;;;;4.00;3.10;;;7.50;99.90;;;;;;5092922;28;20936;-47
2022/11/10 02:14:06;;;;;;;3.20;2.90;;;7.60;99.90;;;;;;5093235;28;20519;-50
2022/11/10 02:16:35;;;;;;;4.40;2.80;;;7.70;99.90;;;;;;5094667;28;20563;-48
2022/11/10 02:19:25;;;;;;;3.67;2.80;;;7.80;99.90;;;;;;5093167;28;20475;-50
2022/11/10 02:21:54;;;;;;;2.43;2.23;;;7.90;99.90;;;;;;5093150;28;20444;-47
2022/11/10 02:24:21;;;;;;;2.60;2.40;;;7.90;99.90;;;;;;5093116;28;20462;-49
2022/11/10 02:26:53;;;;;;;4.87;4.20;;;7.90;99.90;;;;;;5093110;28;20531;-47
2022/11/10 02:29:20;;;;;;;9.00;5.77;;;7.90;99.90;;;;;;5093468;28;20436;-48
2022/11/10 02:31:50;;;;;;;5.53;5.00;;;7.90;99.90;;;;;;5093029;28;20566;-48
2022/11/10 02:37:09;;;;;;;4.70;4.30;;;7.80;99.90;;;;;;5092715;28;20440;-47
2022/11/10 02:39:36;;;;;;;6.73;5.27;;;7.70;99.90;;;;;;5092919;28;20811;-49
2022/11/10 02:42:03;;;;;;;7.00;5.53;;;7.70;99.90;;;;;;5092749;28;20531;-47
2022/11/10 02:44:32;;;;;;;4.70;4.20;;;7.70;99.90;;;;;;5092404;28;20488;-48
2022/11/10 02:47:00;;;;;;;4.80;4.40;;;7.30;99.90;;;;;;5092522;28;20518;-47
2022/11/10 02:49:27;;;;;;;3.97;3.53;;;7.20;99.90;;;;;;5092616;28;21007;-47
2022/11/10 02:51:58;;;;;;;4.20;3.80;;;7.50;99.90;;;;;;5092483;28;20467;-49
2022/11/10 02:54:27;;;;;;;4.40;2.63;;;7.60;99.90;;;;;;5092042;28;20467;-47
2022/11/10 02:56:53;;;;;;;4.13;2.87;;;7.70;99.90;;;;;;5092333;28;21015;-47
2022/11/10 02:59:20;;;;;;;2.77;2.20;;;7.80;99.90;;;;;;5092426;28;20443;-47
2022/11/10 03:01:47;;;;;;;5.70;2.57;;;7.80;99.90;;;;;;5092435;28;20523;-48
2022/11/10 03:04:14;;;;;;;4.07;3.27;;;7.90;99.90;;;;;;5092097;28;20460;-47
2022/11/10 03:06:41;;;;;;;4.03;3.63;;;7.90;99.90;;;;;;5092517;28;20870;-47
2022/11/10 03:09:08;;;;;;;5.00;3.47;;;7.80;99.90;;;;;;5092436;28;20897;-49
2022/11/10 03:11:36;;;;;;;5.13;3.70;;;7.80;99.90;;;;;;5092331;28;20482;-47
2022/11/10 03:14:03;;;;;;;3.53;3.03;;;7.80;99.90;;;;;;5091807;28;20523;-49
2022/11/10 03:16:30;;;;;;;3.13;2.83;;;7.80;99.90;;;;;;5091897;28;20436;-47
2022/11/10 03:18:57;;;;;;;2.47;2.27;;;7.50;99.90;;;;;;5092039;28;20524;-48
2022/11/10 03:21:24;;;;;;;6.53;3.00;;;7.50;99.90;;;;;;5092319;28;20914;-48
2022/11/10 03:23:50;;;;;;;3.00;2.33;;;7.60;99.90;;;;;;5090635;28;21012;-48
2022/11/10 03:26:17;;;;;;;3.30;2.33;;;7.70;99.90;;;;;;5092013;28;20542;-48
2022/11/10 03:28:45;;;;;;;2.20;2.00;;;7.80;99.90;;;;;;5091854;28;20530;-47
2022/11/10 03:31:12;;;;;;;3.03;1.70;;;7.80;99.90;;;;;;5091808;28;20446;-47
2022/11/10 03:33:39;;;;;;;3.50;2.10;;;7.90;99.90;;;;;;5091667;28;20570;-47
2022/11/10 03:36:06;;;;;;;3.23;2.20;;;7.80;99.90;;;;;;5091961;28;20459;-47
2022/11/10 03:38:33;;;;;;;3.60;2.40;;;7.80;99.90;;;;;;5092049;28;20929;-47
2022/11/10 03:41:00;;;;;;;3.23;2.60;;;7.90;99.90;;;;;;5091732;28;20992;-47
2022/11/10 03:43:27;;;;;;;3.67;2.93;;;7.90;99.90;;;;;;5091275;28;20534;-47
2022/11/10 03:45:55;;;;;;;6.60;4.50;;;7.80;99.90;;;;;;5091813;28;20653;-51
2022/11/10 03:48:22;;;;;;;4.97;4.10;;;7.90;99.90;;;;;;5091635;28;20446;-49
2022/11/10 03:50:49;;;;;;;2.93;1.70;;;7.90;99.90;;;;;;5091591;28;20527;-49
2022/11/10 03:53:15;;;;;;;1.93;1.50;;;7.90;99.90;;;;;;5091256;28;20566;-47
2022/11/10 03:55:42;;;;;;;3.13;1.57;;;7.80;99.90;;;;;;5091419;28;20466;-51
2022/11/10 03:58:09;;;;;;;2.70;2.20;;;7.90;99.90;;;;;;5091311;28;20439;-48
2022/11/10 04:00:36;;;;;;;2.97;2.10;;;8.00;99.90;;;;;;5091720;28;20523;-48
2022/11/10 04:03:04;;;;;;;3.03;2.40;;;8.00;99.90;;;;;;5091028;28;20975;-48
2022/11/10 04:11:02;;;;;;;2.00;1.80;;;8.10;99.90;;;;;;5091438;28;20423;-49
2022/11/10 04:16:13;;;;;;;2.23;1.70;;;8.00;99.90;;;;;;5091045;28;20447;-48
2022/11/10 04:18:41;;;;;;;3.60;2.13;;;8.10;99.90;;;;;;5090991;28;20661;-47
2022/11/10 04:21:08;;;;;;;3.37;2.20;;;8.10;99.90;;;;;;5091478;28;20526;-47
2022/11/10 04:23:35;;;;;;;2.60;2.40;;;8.10;99.90;;;;;;5090817;28;20518;-48
2022/11/10 04:28:50;;;;;;;4.97;3.17;;;8.00;99.90;;;;;;5091314;28;20419;-48
2022/11/10 04:31:18;;;;;;;3.27;2.60;;;8.00;99.90;;;;;;5091105;28;20963;-49
2022/11/10 04:33:47;;;;;;;2.60;2.33;;;7.70;99.90;;;;;;5092392;28;21066;-49
2022/11/10 04:36:17;;;;;;;2.70;2.20;;;7.70;99.90;;;;;;5095343;28;20541;-48
2022/11/10 04:38:44;;;;;;;2.73;2.53;;;7.90;99.90;;;;;;5095148;28;21033;-47
2022/11/10 04:41:11;;;;;;;3.73;3.00;;;7.90;99.90;;;;;;5095082;28;20471;-48
2022/11/10 04:43:38;;;;;;;3.37;3.07;;;7.90;99.90;;;;;;5094710;28;20438;-47
2022/11/10 04:46:07;;;;;;;2.90;2.60;;;8.00;99.90;;;;;;5094962;28;21000;-48
2022/11/10 04:48:35;;;;;;;3.67;2.67;;;8.10;99.90;;;;;;5095052;28;20447;-47
2022/11/10 04:51:05;;;;;;;4.17;2.80;;;8.00;99.90;;;;;;5095091;28;20546;-49
2022/11/10 04:53:32;;;;;;;2.23;2.03;;;8.00;99.90;;;;;;5094205;28;20482;-48
2022/11/10 04:55:59;;;;;;;3.57;2.97;;;8.00;99.90;;;;;;5094592;28;20462;-47
2022/11/10 04:58:26;;;;;;;15.77;14.17;;;8.00;99.90;;;;;;5095127;28;20534;-47
2022/11/10 05:00:53;;;;;;;12.40;10.77;;;8.00;99.90;;;;;;5094640;28;20939;-47
2022/11/10 05:03:20;;;;;;;17.03;15.23;;;8.10;99.90;;;;;;5094612;28;20530;-47
2022/11/10 05:05:48;;;;;;;15.43;13.87;;;8.10;99.90;;;;;;5094586;28;20463;-50
2022/11/10 05:08:16;;;;;;;9.60;8.60;;;8.10;99.90;;;;;;5094683;28;20943;-47
2022/11/10 05:10:43;;;;;;;4.13;3.40;;;8.10;99.90;;;;;;5094660;28;20534;-47
2022/11/10 05:13:10;;;;;;;4.87;4.37;;;8.00;99.90;;;;;;5094656;28;20558;-47
2022/11/10 05:15:40;;;;;;;5.70;4.63;;;8.00;99.90;;;;;;5094344;28;20485;-47
2022/11/10 05:18:07;;;;;;;4.83;3.87;;;8.10;99.90;;;;;;5094215;28;20451;-48
2022/11/10 05:20:34;;;;;;;5.03;3.63;;;8.10;99.90;;;;;;5094933;28;20459;-48
2022/11/10 05:25:47;;;;;;;2.87;2.57;;;8.10;99.90;;;;;;5094278;28;20434;-48
2022/11/10 05:28:15;;;;;;;2.93;2.40;;;8.10;99.90;;;;;;5094340;28;20964;-48
2022/11/10 05:30:42;;;;;;;2.70;2.50;;;8.10;99.90;;;;;;5094181;28;20444;-47
2022/11/10 05:33:09;;;;;;;3.13;1.80;;;8.10;99.90;;;;;;5093783;28;20556;-47
2022/11/10 05:35:37;;;;;;;3.60;2.50;;;8.10;99.90;;;;;;5094088;28;20972;-48
2022/11/10 05:38:05;;;;;;;5.23;4.40;;;8.10;99.90;;;;;;5094033;28;20534;-48
2022/11/10 05:40:32;;;;;;;3.60;3.27;;;8.10;99.90;;;;;;5093899;28;20936;-48
2022/11/10 05:43:00;;;;;;;3.93;2.67;;;8.10;99.90;;;;;;5093915;28;20478;-49
2022/11/10 05:45:29;;;;;;;3.10;2.80;;;8.10;99.90;;;;;;5092619;28;20544;-48
2022/11/10 05:47:56;;;;;;;2.40;2.10;;;8.10;99.90;;;;;;5093998;28;20443;-49
2022/11/10 05:50:24;;;;;;;4.63;2.80;;;8.10;99.90;;;;;;5093896;28;20440;-48
2022/11/10 05:52:52;;;;;;;1.93;1.70;;;8.10;99.90;;;;;;5093469;28;20507;-46
2022/11/10 05:55:22;;;;;;;3.03;2.57;;;8.10;99.90;;;;;;5093633;28;20538;-48
2022/11/10 05:57:50;;;;;;;3.00;2.80;;;8.10;99.90;;;;;;5093937;28;20447;-47
2022/11/10 06:00:21;;;;;;;8.13;2.17;;;8.10;99.90;;;;;;5093577;28;20505;-47
2022/11/10 06:02:58;;;;;;;2.73;2.07;;;8.10;99.90;;;;;;5094089;28;20442;-47
2022/11/10 06:05:25;;;;;;;4.70;2.90;;;7.90;99.90;;;;;;5093338;28;20459;-49
2022/11/10 06:07:52;;;;;;;5.00;2.80;;;7.60;99.90;;;;;;5092859;28;20443;-47
2022/11/10 06:10:18;;;;;;;3.27;2.63;;;7.70;99.90;;;;;;5093536;28;20450;-48
2022/11/10 06:12:45;;;;;;;3.13;2.10;;;7.80;99.90;;;;;;5093187;28;20507;-48
2022/11/10 06:15:14;;;;;;;3.23;2.10;;;7.70;99.90;;;;;;5092935;28;20460;-48
2022/11/10 06:17:43;;;;;;;3.30;2.37;;;7.70;99.90;;;;;;5093448;28;20479;-47
2022/11/10 06:20:11;;;;;;;3.20;2.90;;;7.60;99.90;;;;;;5093103;28;20519;-48
2022/11/10 06:22:37;;;;;;;4.23;2.57;;;7.60;99.90;;;;;;5092814;28;21098;-50
2022/11/10 06:25:05;;;;;;;3.90;2.77;;;7.70;99.90;;;;;;5092612;28;20990;-48
2022/11/10 06:27:32;;;;;;;3.67;2.33;;;7.80;99.90;;;;;;5093126;28;20527;-49
2022/11/10 06:29:59;;;;;;;3.60;2.50;;;7.90;99.90;;;;;;5093145;28;20438;-48
2022/11/10 06:32:26;;;;;;;2.80;2.47;;;7.90;99.90;;;;;;5092997;28;20443;-47
2022/11/10 06:34:54;;;;;;;4.70;4.10;;;8.00;99.90;;;;;;5092577;28;20463;-49
2022/11/10 06:37:21;;;;;;;6.80;6.10;;;8.10;99.90;;;;;;5092868;28;20475;-49
2022/11/10 06:39:47;;;;;;;6.33;5.77;;;8.10;99.90;;;;;;5092780;28;20522;-49
2022/11/10 06:42:14;;;;;;;6.70;3.77;;;8.10;99.90;;;;;;5092902;28;20475;-47
2022/11/10 06:44:41;;;;;;;3.20;2.87;;;8.00;99.90;;;;;;5092721;28;20457;-48
2022/11/10 06:47:08;;;;;;;6.37;4.40;;;7.90;99.90;;;;;;5092614;28;20783;-48
2022/11/10 06:49:35;;;;;;;6.30;3.10;;;7.90;99.90;;;;;;5092642;28;20538;-48
2022/11/10 06:52:03;;;;;;;3.10;2.77;;;7.90;99.90;;;;;;5092712;28;20440;-48
2022/11/10 06:54:30;;;;;;;4.13;3.47;;;8.00;99.90;;;;;;5091739;28;20503;-50
2022/11/10 06:56:57;;;;;;;9.00;4.17;;;8.10;99.90;;;;;;5091282;28;20940;-49
2022/11/10 06:59:23;;;;;;;6.90;5.60;;;8.20;99.90;;;;;;5092784;28;20442;-48
2022/11/10 07:01:50;;;;;;;4.73;3.93;;;8.20;99.90;;;;;;5092625;28;20448;-48
2022/11/10 07:04:17;;;;;;;6.00;4.00;;;8.20;99.90;;;;;;5092323;28;20456;-48
2022/11/10 07:06:46;;;;;;;13.43;4.73;;;8.30;99.90;;;;;;5092633;28;20436;-47
2022/11/10 07:09:14;;;;;;;10.40;9.10;;;8.30;99.90;;;;;;5092024;28;20523;-51
2022/11/10 07:11:41;;;;;;;25.37;10.97;;;8.30;99.90;;;;;;5092615;28;20527;-49
2022/11/10 07:14:08;;;;;;;17.23;11.47;;;8.30;99.90;;;;;;5091427;28;21018;-48
2022/11/10 07:16:35;;;;;;;17.93;10.67;;;8.30;99.90;;;;;;5092473;28;20741;-48
2022/11/10 07:19:02;;;;;;;12.10;10.93;;;8.30;99.90;;;;;;5092335;28;20873;-47
2022/11/10 07:21:28;;;;;;;11.97;10.87;;;8.30;99.90;;;;;;5092104;28;20879;-47
2022/11/10 07:23:55;;;;;;;14.50;13.17;;;8.30;99.90;;;;;;5091447;28;20959;-48
2022/11/10 07:26:23;;;;;;;14.60;11.43;;;8.00;99.90;;;;;;5091877;28;20450;-49
2022/11/10 07:28:50;;;;;;;13.87;11.33;;;7.80;99.90;;;;;;5091651;28;20475;-49
2022/11/10 07:31:17;;;;;;;10.47;9.47;;;7.70;99.90;;;;;;5092144;28;20439;-49
2022/11/10 07:33:46;;;;;;;9.97;8.97;;;7.80;99.90;;;;;;5091435;28;21144;-48
2022/11/10 07:36:13;;;;;;;9.57;7.57;;;7.80;99.90;;;;;;5091791;28;20467;-48
2022/11/10 07:38:40;;;;;;;9.37;8.27;;;7.90;99.90;;;;;;5091569;28;20436;-47
2022/11/10 07:41:07;;;;;;;8.90;7.87;;;8.00;99.90;;;;;;5091471;28;20527;-49
2022/11/10 07:43:35;;;;;;;68.23;12.73;;;8.10;99.90;;;;;;5091155;28;20814;-48
2022/11/10 07:46:02;;;;;;;45.13;16.40;;;8.20;99.90;;;;;;5091679;28;20486;-48
2022/11/10 07:48:29;;;;;;;502.40;60.67;;;8.30;99.90;;;;;;5091586;28;20527;-48
2022/11/10 07:50:56;;;;;;;298.97;41.23;;;8.30;99.90;;;;;;5091536;28;20527;-48
2022/11/10 07:53:23;;;;;;;36.57;15.80;;;8.30;99.90;;;;;;5090700;28;20518;-47
2022/11/10 07:55:50;;;;;;;19.97;13.20;;;8.30;99.90;;;;;;5091730;28;20460;-49
2022/11/10 07:58:18;;;;;;;20.27;15.80;;;8.40;99.90;;;;;;5091783;28;20527;-48
2022/11/10 08:00:47;;;;;;;18.83;15.57;;;8.40;99.90;;;;;;5091679;28;20535;-47
2022/11/10 08:03:16;;;;;;;19.17;14.73;;;8.40;99.90;;;;;;5091179;28;20959;-48
2022/11/10 08:05:43;;;;;;;18.60;15.20;;;8.30;99.90;;;;;;5091334;28;20538;-48
2022/11/10 08:08:10;;;;;;;17.03;15.23;;;8.30;99.90;;;;;;5090981;28;20936;-50
2022/11/10 08:10:39;;;;;;;18.53;14.67;;;8.30;99.90;;;;;;5091453;28;20809;-48
2022/11/10 08:13:08;;;;;;;20.20;15.33;;;8.30;99.90;;;;;;5091229;28;20885;-47
2022/11/10 08:15:36;;;;;;;14.20;12.90;;;8.30;99.90;;;;;;5091142;28;20456;-48
2022/11/10 08:18:06;;;;;;;13.63;11.97;;;8.30;99.90;;;;;;5092653;28;20624;-49
2022/11/10 08:20:34;;;;;;;13.40;11.67;;;8.30;99.90;;;;;;5091352;28;20444;-48
2022/11/10 08:23:03;;;;;;;12.37;11.07;;;8.30;99.90;;;;;;5090866;28;20897;-48
2022/11/10 08:25:32;;;;;;;12.27;11.07;;;8.40;99.90;;;;;;5091625;28;20543;-48
2022/11/10 08:27:59;;;;;;;14.80;11.30;;;8.40;99.90;;;;;;5091451;28;20435;-47
2022/11/10 08:30:27;;;;;;;41.33;13.13;;;8.40;99.90;;;;;;5091111;28;20440;-47
2022/11/10 08:32:56;;;;;;;29.97;10.67;;;8.50;99.90;;;;;;5090998;28;20567;-48
2022/11/10 08:35:26;;;;;;;56.57;18.87;;;8.50;99.90;;;;;;5091164;28;20465;-48
2022/11/10 08:37:53;;;;;;;49.90;18.27;;;8.50;99.90;;;;;;5091240;28;20475;-48
2022/11/10 08:40:21;;;;;;;34.07;12.50;;;8.60;99.90;;;;;;5091258;28;20617;-47
2022/11/10 08:42:48;;;;;;;102.67;20.37;;;8.60;99.90;;;;;;5090941;28;20887;-48
2022/11/10 08:45:15;;;;;;;120.33;27.33;;;8.60;99.90;;;;;;5090537;28;21047;-48
2022/11/10 08:47:43;;;;;;;34.67;13.87;;;8.60;99.90;;;;;;5090928;28;20988;-48
2022/11/10 08:50:10;;;;;;;22.83;11.57;;;8.60;99.90;;;;;;5091048;28;20435;-48
2022/11/10 08:52:38;;;;;;;17.90;11.80;;;8.60;99.90;;;;;;5090941;28;20450;-49
2022/11/10 08:55:06;;;;;;;30.23;13.37;;;8.60;99.90;;;;;;5090761;28;20518;-49
2022/11/10 08:57:33;;;;;;;26.97;12.70;;;8.60;99.90;;;;;;5090999;28;20440;-48
2022/11/10 08:59:59;;;;;;;22.67;11.77;;;8.70;99.90;;;;;;5090918;28;20898;-50
2022/11/10 09:02:26;;;;;;;684.07;229.73;;;8.70;99.90;;;;;;5090583;28;20439;-48
2022/11/10 09:04:53;;;;;;;1410.47;454.80;;;8.90;99.90;;;;;;5090736;28;20483;-48
2022/11/10 09:07:20;;;;;;;71.90;32.93;;;8.90;99.90;;;;;;5090884;28;20567;-51
2022/11/10 09:09:48;;;;;;;22.07;13.03;;;8.90;99.90;;;;;;5090950;28;20524;-48
2022/11/10 09:12:15;;;;;;;13.47;11.47;;;8.90;99.90;;;;;;5090836;28;20452;-48
2022/11/10 09:14:42;;;;;;;285.13;88.80;;;8.90;99.90;;;;;;5090440;28;20570;-48
2022/11/10 09:17:09;;;;;;;51.13;22.77;;;8.90;99.90;;;;;;5090793;28;20543;-49
2022/11/10 09:19:35;;;;;;;17.20;13.87;;;8.90;99.90;;;;;;5090939;28;20439;-48
2022/11/10 09:22:02;;;;;;;38.77;17.07;;;8.90;99.90;;;;;;5094356;28;20873;-48
2022/11/10 09:24:29;;;;;;;141.47;28.93;;;8.90;99.90;;;;;;5093710;28;20455;-50
2022/11/10 09:26:58;;;;;;;24.83;12.33;;;8.90;99.90;;;;;;5094306;28;20863;-48
2022/11/10 09:29:24;;;;;;;37.43;13.63;;;8.90;99.90;;;;;;5094450;28;20475;-47
2022/11/10 09:31:51;;;;;;;40.63;12.93;;;8.90;99.90;;;;;;5094659;28;20538;-49
2022/11/10 09:34:18;;;;;;;13.93;9.60;;;8.80;99.90;;;;;;5094114;28;20483;-48
2022/11/10 09:36:45;;;;;;;9.50;8.60;;;8.80;99.90;;;;;;5094233;28;20446;-48
2022/11/10 09:39:12;;;;;;;8.90;8.10;;;8.80;99.90;;;;;;5094215;28;20442;-48
2022/11/10 09:41:40;;;;;;;9.93;8.87;;;8.70;99.90;;;;;;5094143;28;20450;-49
2022/11/10 09:44:14;;;;;;;10.63;8.73;;;8.70;99.90;;;;;;5093949;28;20453;-48
2022/11/10 09:46:45;;;;;;;11.70;9.50;;;8.80;99.90;;;;;;5094052;28;20931;-48
2022/11/10 09:49:23;;;;;;;10.93;7.60;;;9.00;99.90;;;;;;5094198;28;20478;-49
2022/11/10 09:51:53;;;;;;;14.47;9.57;;;9.00;99.90;;;;;;5093960;28;20440;-48
2022/11/10 09:54:33;;;;;;;9.97;9.07;;;9.00;99.90;;;;;;5093656;28;20563;-48
2022/11/10 09:57:00;;;;;;;57.20;22.30;;;8.90;99.90;;;;;;5094475;28;20492;-48
2022/11/10 09:59:31;;;;;;;10.10;9.07;;;9.20;99.90;;;;;;5093914;28;20466;-48
2022/11/10 10:02:03;;;;;;;12.83;9.50;;;9.20;99.90;;;;;;5093975;28;20454;-47
2022/11/10 10:04:42;;;;;;;10.67;9.10;;;9.20;99.90;;;;;;5093630;28;20502;-49
2022/11/10 10:07:13;;;;;;;8.83;7.97;;;9.30;99.90;;;;;;5093867;28;20876;-48
2022/11/10 10:09:50;;;;;;;8.30;7.50;;;9.20;99.90;;;;;;5093637;28;20882;-48
2022/11/10 10:12:30;;;;;;;7.40;6.50;;;9.30;99.90;;;;;;5093568;28;20527;-48
2022/11/10 10:15:11;;;;;;;7.40;6.20;;;9.10;99.90;;;;;;5092729;28;20480;-48
2022/11/10 10:17:45;;;;;;;8.30;6.83;;;9.00;99.90;;;;;;5093297;28;20860;-48
2022/11/10 10:20:18;;;;;;;6.77;6.10;;;9.10;99.90;;;;;;5093378;28;20443;-48
2022/11/10 10:22:57;;;;;;;7.27;6.53;;;9.10;99.90;;;;;;5093245;28;20456;-48
2022/11/10 10:25:26;;;;;;;7.00;6.23;;;9.20;99.90;;;;;;5093359;28;20911;-48
2022/11/10 10:28:13;;;;;;;7.37;6.67;;;9.20;99.90;;;;;;5093135;28;20522;-50
2022/11/10 10:30:43;;;;;;;7.37;6.50;;;9.30;99.90;;;;;;5093276;28;20946;-48
2022/11/10 10:33:15;;;;;;;9.00;7.53;;;9.40;99.90;;;;;;5092755;28;20531;-49
2022/11/10 10:35:43;;;;;;;7.93;7.13;;;9.40;99.90;;;;;;5093203;28;20488;-48
2022/11/10 10:38:20;;;;;;;7.80;6.90;;;9.50;99.90;;;;;;5093039;28;20893;-50
2022/11/10 10:40:49;;;;;;;7.53;6.80;;;9.50;99.90;;;;;;5093239;28;20440;-48
2022/11/10 10:43:16;;;;;;;12.90;10.20;;;9.60;99.90;;;;;;5092645;28;20822;-49
2022/11/10 10:45:44;;;;;;;15.50;10.40;;;9.70;99.90;;;;;;5092727;28;20539;-48
2022/11/10 10:48:25;;;;;;;10.10;8.67;;;9.80;99.90;;;;;;5092798;28;20531;-48
2022/11/10 10:50:52;;;;;;;12.77;7.27;;;9.90;99.90;;;;;;5092932;28;20458;-48
2022/11/10 10:53:20;;;;;;;8.57;7.60;;;10.00;99.90;;;;;;5092520;28;20438;-50
2022/11/10 10:56:00;;;;;;;7.93;7.23;;;9.90;99.90;;;;;;5092705;28;20514;-49
2022/11/10 10:58:29;;;;;;;10.40;6.33;;;9.90;99.90;;;;;;5092626;28;20534;-51
2022/11/10 11:01:05;;;;;;;6.40;5.90;;;10.00;99.90;;;;;;5092377;28;20887;-48
2022/11/10 11:03:40;;;;;;;6.07;5.47;;;10.10;99.90;;;;;;5091938;28;20471;-49
2022/11/10 11:06:19;;;;;;;5.77;5.10;;;10.10;99.90;;;;;;5091976;28;21116;-48
2022/11/10 11:08:57;;;;;;;7.20;5.63;;;10.10;99.90;;;;;;5092694;28;20526;-48
2022/11/10 11:11:26;;;;;;;5.83;5.33;;;10.20;99.90;;;;;;5092280;28;20937;-48
2022/11/10 11:13:53;;;;;;;6.40;4.53;;;10.10;99.90;;;;;;5091731;28;20911;-48
2022/11/10 11:16:21;;;;;;;6.33;4.63;;;10.10;99.90;;;;;;5092013;28;20467;-48
2022/11/10 11:18:48;;;;;;;4.87;4.47;;;10.20;99.90;;;;;;5092324;28;20523;-48
2022/11/10 11:21:27;;;;;;;4.20;3.80;;;10.20;99.90;;;;;;5092381;28;20523;-48
2022/11/10 11:24:16;;;;;;;5.23;4.73;;;10.20;99.90;;;;;;5091344;28;20524;-49
2022/11/10 11:26:52;;;;;;;7.10;5.10;;;10.40;99.90;;;;;;5092170;28;20458;-48
2022/11/10 11:29:35;;;;;;;5.63;5.13;;;10.40;99.90;;;;;;5092111;28;20435;-48
2022/11/10 11:32:19;;;;;;;9.97;7.50;;;10.40;99.90;;;;;;5092144;28;20552;-49
2022/11/10 11:34:56;;;;;;;4.80;4.30;;;10.50;99.90;;;;;;5091725;28;20480;-48
2022/11/10 11:37:31;;;;;;;3.50;3.20;;;10.50;99.90;;;;;;5091985;28;20536;-50
2022/11/10 11:40:11;;;;;;;26.57;7.43;;;10.40;99.90;;;;;;5091978;28;20451;-51
2022/11/10 11:42:53;;;;;;;4.80;3.80;;;10.40;99.90;;;;;;5091689;28;20902;-50
2022/11/10 11:45:27;;;;;;;4.53;4.13;;;10.50;99.90;;;;;;5091778;28;20544;-48
2022/11/10 11:48:20;;;;;;;4.87;3.60;;;10.50;99.90;;;;;;5088963;28;20449;-50
2022/11/10 11:50:54;;;;;;;5.73;3.60;;;10.50;99.90;;;;;;5091692;28;20955;-48
2022/11/10 11:53:34;;;;;;;4.20;2.93;;;10.40;99.90;;;;;;5091677;28;20521;-49
2022/11/10 11:56:16;;;;;;;4.67;3.70;;;10.30;99.90;;;;;;5091699;28;20567;-48
2022/11/10 11:58:45;;;;;;;4.97;4.07;;;10.30;99.90;;;;;;5091822;28;20530;-49
2022/11/10 12:01:26;;;;;;;4.47;3.87;;;10.40;99.90;;;;;;5091865;28;20476;-48
2022/11/10 12:04:23;;;;;;;4.47;4.07;;;10.50;99.90;;;;;;5091489;28;20529;-50
2022/11/10 12:07:01;;;;;;;5.60;4.57;;;10.60;99.90;;;;;;5091884;28;20532;-48
2022/11/10 12:09:36;;;;;;;5.27;4.33;;;10.60;99.90;;;;;;5091685;28;20528;-48
2022/11/10 12:12:20;;;;;;;5.43;4.90;;;10.70;99.90;;;;;;5091585;28;20439;-48
2022/11/10 12:14:53;;;;;;;5.57;4.97;;;10.80;99.90;;;;;;5091043;28;20995;-48
2022/11/10 12:17:30;;;;;;;5.50;5.00;;;10.70;99.90;;;;;;5091504;28;20471;-49
2022/11/10 12:20:07;;;;;;;4.93;3.90;;;10.60;99.90;;;;;;5091503;28;20439;-48
2022/11/10 12:22:44;;;;;;;3.37;3.07;;;10.60;99.90;;;;;;5090965;28;20455;-46
2022/11/10 12:25:19;;;;;;;4.40;4.00;;;10.60;99.90;;;;;;5091135;28;20898;-48
2022/11/10 12:27:52;;;;;;;4.03;3.30;;;10.60;99.90;;;;;;5091332;28;20529;-50
2022/11/10 12:30:19;;;;;;;4.27;3.57;;;10.60;99.90;;;;;;5091287;28;20529;-49
2022/11/10 12:32:51;;;;;;;3.93;3.57;;;10.50;99.90;;;;;;5091121;28;20518;-48
2022/11/10 12:35:22;;;;;;;3.93;3.50;;;10.50;99.90;;;;;;5090967;28;20485;-48
2022/11/10 12:37:54;;;;;;;16.10;14.27;;;10.50;99.90;;;;;;5091320;28;20480;-50
2022/11/10 12:40:22;;;;;;;25.67;18.07;;;10.60;99.90;;;;;;5091196;28;20528;-48
2022/11/10 12:42:55;;;;;;;18.30;14.10;;;10.60;99.90;;;;;;5091166;28;20444;-50
2022/11/10 12:45:27;;;;;;;6.73;5.30;;;10.60;99.90;;;;;;5089990;28;20485;-48
2022/11/10 12:47:55;;;;;;;4.53;3.40;;;10.70;99.90;;;;;;5090930;28;20533;-48
2022/11/10 12:50:47;;;;;;;3.20;2.70;;;10.60;99.90;;;;;;5080655;28;20448;-48
2022/11/10 12:53:21;;;;;;;6.47;2.50;;;10.70;99.90;;;;;;5087316;28;20517;-50
2022/11/10 12:55:52;;;;;;;2.50;2.23;;;10.60;99.90;;;;;;5085623;28;20470;-51
2022/11/10 12:58:19;;;;;;;3.30;2.30;;;10.60;99.90;;;;;;5087718;28;20535;-48
2022/11/10 13:00:56;;;;;;;2.40;2.13;;;10.50;99.90;;;;;;5088706;28;20562;-48
2022/11/10 13:03:28;;;;;;;2.63;2.20;;;10.60;99.90;;;;;;5092715;28;20443;-49
2022/11/10 13:05:59;;;;;;;3.30;3.00;;;10.60;99.90;;;;;;5088640;28;20483;-48
2022/11/10 13:08:32;;;;;;;2.83;2.57;;;10.60;99.90;;;;;;5094917;28;20448;-48
2022/11/10 13:11:03;;;;;;;4.10;2.90;;;10.60;99.90;;;;;;5094820;28;20538;-48
2022/11/10 13:13:39;;;;;;;3.20;2.90;;;10.60;99.90;;;;;;5094782;28;20436;-48
2022/11/10 13:16:09;;;;;;;4.70;3.00;;;10.60;99.90;;;;;;5094580;28;20576;-49
2022/11/10 13:19:00;;;;;;;3.87;3.07;;;10.60;99.90;;;;;;5094446;28;20543;-50
2022/11/10 13:22:08;;;;;;;3.77;3.40;;;10.60;99.90;;;;;;5094739;28;20854;-48
2022/11/10 13:24:37;;;;;;;4.90;4.40;;;10.50;99.90;;;;;;5094574;28;20472;-48
2022/11/10 13:27:05;;;;;;;7.70;5.70;;;10.60;99.90;;;;;;5094640;28;20532;-48